sensor_id;sensor_type;location;lat;lon;timestamp;temperature;humidity
26541;DHT22;14206;50.202;10.948;2023-02-01T00:01:06;4.60;96.60
26541;DHT22;14206;50.202;10.948;2023-02-01T00:03:34;4.70;96.60
26541;DHT22;14206;50.202;10.948;2023-02-01T00:06:01;4.70;96.60
26541;DHT22;14206;50.202;10.948;2023-02-01T00:08:28;4.80;96.60
26541;DHT22;14206;50.202;10.948;2023-02-01T00:11:05;4.80;96.60
26541;DHT22;14206;50.202;10.948;2023-02-01T00:13:33;4.80;96.60
26541;DHT22;14206;50.202;10.948;2023-02-01T00:16:06;4.90;96.60
26541;DHT22;14206;50.202;10.948;2023-02-01T00:18:33;4.90;96.60
26541;DHT22;14206;50.202;10.948;2023-02-01T00:21:00;4.90;96.60
26541;DHT22;14206;50.202;10.948;2023-02-01T00:23:27;5.00;96.60
26541;DHT22;14206;50.202;10.948;2023-02-01T00:25:54;5.10;96.60
26541;DHT22;14206;50.202;10.948;2023-02-01T00:28:21;5.10;96.60
26541;DHT22;14206;50.202;10.948;2023-02-01T00:30:56;5.10;96.60
26541;DHT22;14206;50.202;10.948;2023-02-01T00:33:23;5.10;96.60
26541;DHT22;14206;50.202;10.948;2023-02-01T00:35:50;5.20;96.60
26541;DHT22;14206;50.202;10.948;2023-02-01T00:38:17;5.20;96.60
26541;DHT22;14206;50.202;10.948;2023-02-01T00:40:44;5.20;96.60
26541;DHT22;14206;50.202;10.948;2023-02-01T00:43:11;5.20;96.60
26541;DHT22;14206;50.202;10.948;2023-02-01T00:45:37;5.30;96.60
26541;DHT22;14206;50.202;10.948;2023-02-01T00:48:05;5.30;96.60
26541;DHT22;14206;50.202;10.948;2023-02-01T00:50:31;5.30;96.60
26541;DHT22;14206;50.202;10.948;2023-02-01T00:52:58;5.30;96.60
26541;DHT22;14206;50.202;10.948;2023-02-01T00:55:26;5.30;96.60
26541;DHT22;14206;50.202;10.948;2023-02-01T00:57:53;5.30;96.60
26541;DHT22;14206;50.202;10.948;2023-02-01T01:00:20;5.30;96.60
26541;DHT22;14206;50.202;10.948;2023-02-01T01:02:47;5.30;96.60
26541;DHT22;14206;50.202;10.948;2023-02-01T01:05:14;5.20;96.60
26541;DHT22;14206;50.202;10.948;2023-02-01T01:07:40;5.20;96.60
26541;DHT22;14206;50.202;10.948;2023-02-01T01:10:08;5.20;96.60
26541;DHT22;14206;50.202;10.948;2023-02-01T01:12:35;5.20;96.60
26541;DHT22;14206;50.202;10.948;2023-02-01T01:15:02;5.20;96.60
26541;DHT22;14206;50.202;10.948;2023-02-01T01:17:31;5.30;96.60
26541;DHT22;14206;50.202;10.948;2023-02-01T01:19:57;5.30;96.60
26541;DHT22;14206;50.202;10.948;2023-02-01T01:22:25;5.30;96.60
26541;DHT22;14206;50.202;10.948;2023-02-01T01:24:52;5.40;96.60
26541;DHT22;14206;50.202;10.948;2023-02-01T01:27:19;5.40;96.60
26541;DHT22;14206;50.202;10.948;2023-02-01T01:29:50;5.40;96.60
26541;DHT22;14206;50.202;10.948;2023-02-01T01:32:17;5.30;96.60
26541;DHT22;14206;50.202;10.948;2023-02-01T01:34:44;5.40;96.60
26541;DHT22;14206;50.202;10.948;2023-02-01T01:37:11;5.40;96.60
26541;DHT22;14206;50.202;10.948;2023-02-01T01:39:37;5.40;96.60
26541;DHT22;14206;50.202;10.948;2023-02-01T01:42:04;5.40;96.60
26541;DHT22;14206;50.202;10.948;2023-02-01T01:45:26;5.30;96.60
26541;DHT22;14206;50.202;10.948;2023-02-01T01:47:47;5.30;96.60
26541;DHT22;14206;50.202;10.948;2023-02-01T01:50:19;5.30;96.60
26541;DHT22;14206;50.202;10.948;2023-02-01T01:52:49;5.30;96.60
26541;DHT22;14206;50.202;10.948;2023-02-01T01:55:18;5.30;96.60
26541;DHT22;14206;50.202;10.948;2023-02-01T01:57:52;5.30;96.60
26541;DHT22;14206;50.202;10.948;2023-02-01T02:00:28;5.30;96.60
26541;DHT22;14206;50.202;10.948;2023-02-01T02:03:03;5.20;96.60
26541;DHT22;14206;50.202;10.948;2023-02-01T02:05:34;5.30;96.60
26541;DHT22;14206;50.202;10.948;2023-02-01T02:08:01;5.20;96.60
26541;DHT22;14206;50.202;10.948;2023-02-01T02:10:28;5.20;96.60
26541;DHT22;14206;50.202;10.948;2023-02-01T02:13:14;5.20;96.60
26541;DHT22;14206;50.202;10.948;2023-02-01T02:15:48;5.20;96.60
26541;DHT22;14206;50.202;10.948;2023-02-01T02:18:31;5.20;96.60
26541;DHT22;14206;50.202;10.948;2023-02-01T02:32:17;4.90;96.60
26541;DHT22;14206;50.202;10.948;2023-02-01T02:35:24;4.90;96.60
26541;DHT22;14206;50.202;10.948;2023-02-01T02:38:13;4.80;96.60
26541;DHT22;14206;50.202;10.948;2023-02-01T02:40:54;4.80;96.60
26541;DHT22;14206;50.202;10.948;2023-02-01T02:43:36;4.90;96.60
26541;DHT22;14206;50.202;10.948;2023-02-01T02:46:36;4.90;96.60
26541;DHT22;14206;50.202;10.948;2023-02-01T02:53:15;4.90;96.60
26541;DHT22;14206;50.202;10.948;2023-02-01T02:56:06;5.00;96.60
26541;DHT22;14206;50.202;10.948;2023-02-01T02:58:55;5.00;96.60
26541;DHT22;14206;50.202;10.948;2023-02-01T03:01:41;5.00;96.60
26541;DHT22;14206;50.202;10.948;2023-02-01T03:04:27;5.10;96.60
26541;DHT22;14206;50.202;10.948;2023-02-01T03:06:54;5.10;96.60
26541;DHT22;14206;50.202;10.948;2023-02-01T03:09:33;5.10;96.60
26541;DHT22;14206;50.202;10.948;2023-02-01T03:12:06;5.10;96.60
26541;DHT22;14206;50.202;10.948;2023-02-01T03:14:56;5.10;96.60
26541;DHT22;14206;50.202;10.948;2023-02-01T03:17:29;5.10;96.60
26541;DHT22;14206;50.202;10.948;2023-02-01T03:20:01;5.10;96.60
26541;DHT22;14206;50.202;10.948;2023-02-01T03:22:28;5.20;96.60
26541;DHT22;14206;50.202;10.948;2023-02-01T03:25:03;5.10;96.60
26541;DHT22;14206;50.202;10.948;2023-02-01T03:27:48;5.20;96.60
26541;DHT22;14206;50.202;10.948;2023-02-01T03:32:52;5.30;96.60
26541;DHT22;14206;50.202;10.948;2023-02-01T03:38:40;5.30;96.60
26541;DHT22;14206;50.202;10.948;2023-02-01T03:49:34;5.30;96.60
26541;DHT22;14206;50.202;10.948;2023-02-01T03:52:05;5.20;96.60
26541;DHT22;14206;50.202;10.948;2023-02-01T03:54:34;5.20;96.60
26541;DHT22;14206;50.202;10.948;2023-02-01T03:57:05;5.30;96.60
26541;DHT22;14206;50.202;10.948;2023-02-01T03:59:38;5.30;96.60
26541;DHT22;14206;50.202;10.948;2023-02-01T04:02:05;5.30;96.60
26541;DHT22;14206;50.202;10.948;2023-02-01T04:04:34;5.30;96.60
26541;DHT22;14206;50.202;10.948;2023-02-01T04:07:05;5.40;96.60
26541;DHT22;14206;50.202;10.948;2023-02-01T04:09:34;5.40;96.60
26541;DHT22;14206;50.202;10.948;2023-02-01T04:12:01;5.40;96.60
26541;DHT22;14206;50.202;10.948;2023-02-01T04:14:34;5.40;96.60
26541;DHT22;14206;50.202;10.948;2023-02-01T04:17:01;5.40;96.60
26541;DHT22;14206;50.202;10.948;2023-02-01T04:19:28;5.40;96.60
26541;DHT22;14206;50.202;10.948;2023-02-01T04:21:57;5.30;96.60
26541;DHT22;14206;50.202;10.948;2023-02-01T04:24:24;5.30;96.60
26541;DHT22;14206;50.202;10.948;2023-02-01T04:26:50;5.20;96.60
26541;DHT22;14206;50.202;10.948;2023-02-01T04:29:17;5.20;96.60
26541;DHT22;14206;50.202;10.948;2023-02-01T04:31:44;5.10;96.60
26541;DHT22;14206;50.202;10.948;2023-02-01T04:34:12;5.00;96.60
26541;DHT22;14206;50.202;10.948;2023-02-01T04:36:40;4.90;96.60
26541;DHT22;14206;50.202;10.948;2023-02-01T04:39:08;4.80;96.60
26541;DHT22;14206;50.202;10.948;2023-02-01T04:41:37;4.80;96.60
26541;DHT22;14206;50.202;10.948;2023-02-01T04:44:03;4.70;96.60
26541;DHT22;14206;50.202;10.948;2023-02-01T04:46:30;4.70;96.60
26541;DHT22;14206;50.202;10.948;2023-02-01T04:48:57;4.70;96.60
26541;DHT22;14206;50.202;10.948;2023-02-01T04:51:24;4.60;96.60
26541;DHT22;14206;50.202;10.948;2023-02-01T04:53:51;4.60;96.60
26541;DHT22;14206;50.202;10.948;2023-02-01T04:56:18;4.60;96.60
26541;DHT22;14206;50.202;10.948;2023-02-01T04:58:48;4.60;96.60
26541;DHT22;14206;50.202;10.948;2023-02-01T05:01:15;4.70;96.60
26541;DHT22;14206;50.202;10.948;2023-02-01T05:03:42;4.70;96.60
26541;DHT22;14206;50.202;10.948;2023-02-01T05:06:09;4.80;96.60
26541;DHT22;14206;50.202;10.948;2023-02-01T05:08:35;4.90;96.60
26541;DHT22;14206;50.202;10.948;2023-02-01T05:11:04;4.90;96.60
26541;DHT22;14206;50.202;10.948;2023-02-01T05:13:31;4.90;96.60
26541;DHT22;14206;50.202;10.948;2023-02-01T05:16:17;4.90;96.60
26541;DHT22;14206;50.202;10.948;2023-02-01T05:18:44;4.90;96.60
26541;DHT22;14206;50.202;10.948;2023-02-01T05:21:10;5.00;96.60
26541;DHT22;14206;50.202;10.948;2023-02-01T05:23:37;5.00;96.60
26541;DHT22;14206;50.202;10.948;2023-02-01T05:26:24;5.00;96.60
26541;DHT22;14206;50.202;10.948;2023-02-01T05:28:51;5.00;96.60
26541;DHT22;14206;50.202;10.948;2023-02-01T05:31:18;5.10;96.60
26541;DHT22;14206;50.202;10.948;2023-02-01T05:33:45;5.10;96.60
26541;DHT22;14206;50.202;10.948;2023-02-01T05:36:12;5.10;96.60
26541;DHT22;14206;50.202;10.948;2023-02-01T05:38:39;5.20;96.60
26541;DHT22;14206;50.202;10.948;2023-02-01T05:41:05;5.20;96.60
26541;DHT22;14206;50.202;10.948;2023-02-01T05:43:33;5.20;96.60
26541;DHT22;14206;50.202;10.948;2023-02-01T05:45:59;5.20;96.60
26541;DHT22;14206;50.202;10.948;2023-02-01T05:48:26;5.20;96.60
26541;DHT22;14206;50.202;10.948;2023-02-01T05:50:53;5.30;96.60
26541;DHT22;14206;50.202;10.948;2023-02-01T05:53:20;5.30;96.60
26541;DHT22;14206;50.202;10.948;2023-02-01T05:55:47;5.30;96.60
26541;DHT22;14206;50.202;10.948;2023-02-01T05:58:14;5.30;96.60
26541;DHT22;14206;50.202;10.948;2023-02-01T06:00:42;5.30;96.60
26541;DHT22;14206;50.202;10.948;2023-02-01T06:03:09;5.30;96.60
26541;DHT22;14206;50.202;10.948;2023-02-01T06:05:36;5.20;96.60
26541;DHT22;14206;50.202;10.948;2023-02-01T06:08:03;5.20;96.60
26541;DHT22;14206;50.202;10.948;2023-02-01T06:10:30;5.20;96.60
26541;DHT22;14206;50.202;10.948;2023-02-01T06:12:57;5.10;96.60
26541;DHT22;14206;50.202;10.948;2023-02-01T06:15:24;5.10;96.60
26541;DHT22;14206;50.202;10.948;2023-02-01T06:17:50;5.10;96.60
26541;DHT22;14206;50.202;10.948;2023-02-01T06:20:17;5.10;96.60
26541;DHT22;14206;50.202;10.948;2023-02-01T06:22:44;5.10;96.60
26541;DHT22;14206;50.202;10.948;2023-02-01T06:25:11;5.00;96.60
26541;DHT22;14206;50.202;10.948;2023-02-01T06:27:38;5.00;96.60
26541;DHT22;14206;50.202;10.948;2023-02-01T06:30:05;5.00;96.60
26541;DHT22;14206;50.202;10.948;2023-02-01T06:32:33;5.10;96.60
26541;DHT22;14206;50.202;10.948;2023-02-01T06:35:00;5.10;96.60
26541;DHT22;14206;50.202;10.948;2023-02-01T06:37:27;5.10;96.60
26541;DHT22;14206;50.202;10.948;2023-02-01T06:39:55;5.10;96.60
26541;DHT22;14206;50.202;10.948;2023-02-01T06:42:22;5.00;96.60
26541;DHT22;14206;50.202;10.948;2023-02-01T06:44:49;5.00;96.60
26541;DHT22;14206;50.202;10.948;2023-02-01T06:47:16;4.90;96.60
26541;DHT22;14206;50.202;10.948;2023-02-01T06:49:43;4.90;96.60
26541;DHT22;14206;50.202;10.948;2023-02-01T06:52:10;4.80;96.60
26541;DHT22;14206;50.202;10.948;2023-02-01T06:54:36;4.80;96.60
26541;DHT22;14206;50.202;10.948;2023-02-01T06:57:04;4.80;96.60
26541;DHT22;14206;50.202;10.948;2023-02-01T06:59:30;4.80;96.60
26541;DHT22;14206;50.202;10.948;2023-02-01T07:01:58;4.80;96.60
26541;DHT22;14206;50.202;10.948;2023-02-01T07:04:25;4.70;96.60
26541;DHT22;14206;50.202;10.948;2023-02-01T07:06:51;4.70;96.60
26541;DHT22;14206;50.202;10.948;2023-02-01T07:09:18;4.70;96.60
26541;DHT22;14206;50.202;10.948;2023-02-01T07:11:45;4.70;96.60
26541;DHT22;14206;50.202;10.948;2023-02-01T07:14:15;4.80;96.60
26541;DHT22;14206;50.202;10.948;2023-02-01T07:16:42;4.80;96.60
26541;DHT22;14206;50.202;10.948;2023-02-01T07:19:09;4.90;96.60
26541;DHT22;14206;50.202;10.948;2023-02-01T07:21:36;5.00;96.60
26541;DHT22;14206;50.202;10.948;2023-02-01T07:24:03;5.00;96.60
26541;DHT22;14206;50.202;10.948;2023-02-01T07:26:30;5.00;96.60
26541;DHT22;14206;50.202;10.948;2023-02-01T07:28:57;5.00;96.60
26541;DHT22;14206;50.202;10.948;2023-02-01T07:31:24;5.10;96.60
26541;DHT22;14206;50.202;10.948;2023-02-01T07:33:53;5.10;96.60
26541;DHT22;14206;50.202;10.948;2023-02-01T07:36:19;5.20;96.60
26541;DHT22;14206;50.202;10.948;2023-02-01T07:38:46;5.40;96.60
26541;DHT22;14206;50.202;10.948;2023-02-01T07:41:14;5.60;96.60
26541;DHT22;14206;50.202;10.948;2023-02-01T07:43:41;5.70;96.60
26541;DHT22;14206;50.202;10.948;2023-02-01T07:46:10;5.70;96.60
26541;DHT22;14206;50.202;10.948;2023-02-01T07:48:37;5.80;96.60
26541;DHT22;14206;50.202;10.948;2023-02-01T07:51:07;5.80;96.60
26541;DHT22;14206;50.202;10.948;2023-02-01T07:53:35;5.80;96.50
26541;DHT22;14206;50.202;10.948;2023-02-01T07:56:04;5.80;96.60
26541;DHT22;14206;50.202;10.948;2023-02-01T07:58:35;5.80;96.60
26541;DHT22;14206;50.202;10.948;2023-02-01T08:01:01;5.80;96.60
26541;DHT22;14206;50.202;10.948;2023-02-01T08:03:56;5.80;96.50
26541;DHT22;14206;50.202;10.948;2023-02-01T08:06:24;5.80;96.60
26541;DHT22;14206;50.202;10.948;2023-02-01T08:08:52;6.10;96.60
26541;DHT22;14206;50.202;10.948;2023-02-01T08:11:20;6.70;95.50
26541;DHT22;14206;50.202;10.948;2023-02-01T08:13:48;7.20;94.00
26541;DHT22;14206;50.202;10.948;2023-02-01T08:16:16;7.80;90.90
26541;DHT22;14206;50.202;10.948;2023-02-01T08:18:44;7.80;89.60
26541;DHT22;14206;50.202;10.948;2023-02-01T08:21:19;7.60;89.50
26541;DHT22;14206;50.202;10.948;2023-02-01T08:23:46;7.40;90.10
26541;DHT22;14206;50.202;10.948;2023-02-01T08:28:47;6.90;90.90
26541;DHT22;14206;50.202;10.948;2023-02-01T08:31:16;6.80;91.50
26541;DHT22;14206;50.202;10.948;2023-02-01T08:33:48;6.60;92.30
26541;DHT22;14206;50.202;10.948;2023-02-01T08:36:15;6.50;92.70
26541;DHT22;14206;50.202;10.948;2023-02-01T08:38:42;6.40;93.60
26541;DHT22;14206;50.202;10.948;2023-02-01T08:41:15;6.30;93.50
26541;DHT22;14206;50.202;10.948;2023-02-01T08:43:43;6.20;93.70
26541;DHT22;14206;50.202;10.948;2023-02-01T08:46:10;6.10;94.00
26541;DHT22;14206;50.202;10.948;2023-02-01T08:48:38;6.10;94.10
26541;DHT22;14206;50.202;10.948;2023-02-01T08:51:08;6.00;94.30
26541;DHT22;14206;50.202;10.948;2023-02-01T08:53:36;6.00;94.60
26541;DHT22;14206;50.202;10.948;2023-02-01T08:56:03;5.90;95.10
26541;DHT22;14206;50.202;10.948;2023-02-01T08:58:30;5.80;95.60
26541;DHT22;14206;50.202;10.948;2023-02-01T09:01:05;5.80;95.90
26541;DHT22;14206;50.202;10.948;2023-02-01T09:03:32;5.80;95.80
26541;DHT22;14206;50.202;10.948;2023-02-01T09:06:03;5.80;95.70
26541;DHT22;14206;50.202;10.948;2023-02-01T09:08:31;5.90;95.20
26541;DHT22;14206;50.202;10.948;2023-02-01T09:10:59;5.80;94.80
26541;DHT22;14206;50.202;10.948;2023-02-01T09:13:37;5.90;94.80
26541;DHT22;14206;50.202;10.948;2023-02-01T09:16:04;5.90;94.50
26541;DHT22;14206;50.202;10.948;2023-02-01T09:18:31;5.90;94.30
26541;DHT22;14206;50.202;10.948;2023-02-01T09:20:58;6.00;94.10
26541;DHT22;14206;50.202;10.948;2023-02-01T09:23:25;6.00;93.90
26541;DHT22;14206;50.202;10.948;2023-02-01T09:25:52;6.00;93.30
26541;DHT22;14206;50.202;10.948;2023-02-01T09:28:19;6.10;92.40
26541;DHT22;14206;50.202;10.948;2023-02-01T09:30:46;6.10;92.10
26541;DHT22;14206;50.202;10.948;2023-02-01T09:33:13;6.10;92.70
26541;DHT22;14206;50.202;10.948;2023-02-01T09:35:39;6.20;92.40
26541;DHT22;14206;50.202;10.948;2023-02-01T09:38:06;6.20;92.40
26541;DHT22;14206;50.202;10.948;2023-02-01T09:40:34;6.30;92.60
26541;DHT22;14206;50.202;10.948;2023-02-01T09:46:18;6.40;90.80
26541;DHT22;14206;50.202;10.948;2023-02-01T09:48:47;6.40;90.70
26541;DHT22;14206;50.202;10.948;2023-02-01T09:51:23;6.50;90.10
26541;DHT22;14206;50.202;10.948;2023-02-01T09:54:04;6.70;89.90
26541;DHT22;14206;50.202;10.948;2023-02-01T09:56:45;6.90;89.30
26541;DHT22;14206;50.202;10.948;2023-02-01T10:01:59;7.10;88.40
26541;DHT22;14206;50.202;10.948;2023-02-01T10:04:26;7.00;88.00
26541;DHT22;14206;50.202;10.948;2023-02-01T10:10:01;7.00;87.80
26541;DHT22;14206;50.202;10.948;2023-02-01T10:23:41;7.20;88.80
26541;DHT22;14206;50.202;10.948;2023-02-01T10:26:23;7.30;88.70
26541;DHT22;14206;50.202;10.948;2023-02-01T10:28:53;7.50;87.60
26541;DHT22;14206;50.202;10.948;2023-02-01T10:31:24;7.50;87.50
26541;DHT22;14206;50.202;10.948;2023-02-01T10:34:21;7.40;87.20
26541;DHT22;14206;50.202;10.948;2023-02-01T10:37:34;7.30;87.10
26541;DHT22;14206;50.202;10.948;2023-02-01T10:39:36;7.20;87.00
26541;DHT22;14206;50.202;10.948;2023-02-01T10:42:03;7.10;87.90
26541;DHT22;14206;50.202;10.948;2023-02-01T10:44:31;7.10;88.40
26541;DHT22;14206;50.202;10.948;2023-02-01T10:47:01;7.10;87.70
26541;DHT22;14206;50.202;10.948;2023-02-01T10:49:38;7.10;88.10
26541;DHT22;14206;50.202;10.948;2023-02-01T10:52:14;7.10;87.90
26541;DHT22;14206;50.202;10.948;2023-02-01T10:54:42;7.10;87.70
26541;DHT22;14206;50.202;10.948;2023-02-01T10:57:19;7.10;88.00
26541;DHT22;14206;50.202;10.948;2023-02-01T10:59:46;7.10;87.50
26541;DHT22;14206;50.202;10.948;2023-02-01T11:05:08;7.00;88.10
26541;DHT22;14206;50.202;10.948;2023-02-01T11:07:38;6.90;88.10
26541;DHT22;14206;50.202;10.948;2023-02-01T11:10:09;6.90;88.40
26541;DHT22;14206;50.202;10.948;2023-02-01T11:12:54;7.00;88.20
26541;DHT22;14206;50.202;10.948;2023-02-01T11:15:23;7.00;88.00
26541;DHT22;14206;50.202;10.948;2023-02-01T11:17:51;7.00;87.90
26541;DHT22;14206;50.202;10.948;2023-02-01T11:20:26;6.90;88.10
26541;DHT22;14206;50.202;10.948;2023-02-01T11:23:01;6.90;88.40
26541;DHT22;14206;50.202;10.948;2023-02-01T11:25:28;6.90;88.20
26541;DHT22;14206;50.202;10.948;2023-02-01T11:27:56;6.90;88.40
26541;DHT22;14206;50.202;10.948;2023-02-01T11:30:33;6.90;88.60
26541;DHT22;14206;50.202;10.948;2023-02-01T11:33:03;6.90;88.20
26541;DHT22;14206;50.202;10.948;2023-02-01T11:35:36;6.90;88.00
26541;DHT22;14206;50.202;10.948;2023-02-01T11:38:21;6.90;88.30
26541;DHT22;14206;50.202;10.948;2023-02-01T11:40:49;6.80;88.10
26541;DHT22;14206;50.202;10.948;2023-02-01T11:43:27;6.80;88.10
26541;DHT22;14206;50.202;10.948;2023-02-01T11:46:01;6.80;88.50
26541;DHT22;14206;50.202;10.948;2023-02-01T11:48:32;6.80;88.60
26541;DHT22;14206;50.202;10.948;2023-02-01T11:54:25;6.80;88.00
26541;DHT22;14206;50.202;10.948;2023-02-01T11:57:10;6.70;88.20
26541;DHT22;14206;50.202;10.948;2023-02-01T11:59:56;6.70;88.80
26541;DHT22;14206;50.202;10.948;2023-02-01T12:02:51;6.70;88.90
26541;DHT22;14206;50.202;10.948;2023-02-01T12:05:34;6.60;88.70
26541;DHT22;14206;50.202;10.948;2023-02-01T12:08:31;6.60;88.80
26541;DHT22;14206;50.202;10.948;2023-02-01T12:40:15;6.80;87.40
26541;DHT22;14206;50.202;10.948;2023-02-01T12:43:10;6.90;87.50
26541;DHT22;14206;50.202;10.948;2023-02-01T12:45:42;6.90;87.90
26541;DHT22;14206;50.202;10.948;2023-02-01T12:48:22;6.90;87.80
26541;DHT22;14206;50.202;10.948;2023-02-01T12:50:57;6.90;87.30
26541;DHT22;14206;50.202;10.948;2023-02-01T12:54:06;6.90;87.10
26541;DHT22;14206;50.202;10.948;2023-02-01T12:59:05;6.90;87.60
26541;DHT22;14206;50.202;10.948;2023-02-01T13:01:41;6.90;87.40
26541;DHT22;14206;50.202;10.948;2023-02-01T13:09:51;6.90;86.60
26541;DHT22;14206;50.202;10.948;2023-02-01T13:12:24;6.80;86.90
26541;DHT22;14206;50.202;10.948;2023-02-01T13:15:17;6.80;86.80
26541;DHT22;14206;50.202;10.948;2023-02-01T13:17:46;6.90;86.80
26541;DHT22;14206;50.202;10.948;2023-02-01T13:23:21;6.90;87.00
26541;DHT22;14206;50.202;10.948;2023-02-01T13:25:51;6.90;87.00
26541;DHT22;14206;50.202;10.948;2023-02-01T13:42:13;6.80;86.50
26541;DHT22;14206;50.202;10.948;2023-02-01T13:44:42;6.80;86.70
26541;DHT22;14206;50.202;10.948;2023-02-01T13:47:22;6.80;86.40
26541;DHT22;14206;50.202;10.948;2023-02-01T13:49:51;6.90;86.40
26541;DHT22;14206;50.202;10.948;2023-02-01T13:55:27;7.00;85.70
26541;DHT22;14206;50.202;10.948;2023-02-01T13:58:12;7.10;85.70
26541;DHT22;14206;50.202;10.948;2023-02-01T14:00:42;7.10;85.50
26541;DHT22;14206;50.202;10.948;2023-02-01T14:08:22;7.10;85.40
26541;DHT22;14206;50.202;10.948;2023-02-01T14:10:54;7.10;85.50
26541;DHT22;14206;50.202;10.948;2023-02-01T14:13:37;7.10;85.30
26541;DHT22;14206;50.202;10.948;2023-02-01T14:21:28;7.00;85.10
26541;DHT22;14206;50.202;10.948;2023-02-01T14:24:00;6.90;85.70
26541;DHT22;14206;50.202;10.948;2023-02-01T14:29:21;6.90;85.70
26541;DHT22;14206;50.202;10.948;2023-02-01T14:34:39;6.90;85.50
26541;DHT22;14206;50.202;10.948;2023-02-01T14:42:28;6.90;85.70
26541;DHT22;14206;50.202;10.948;2023-02-01T14:53:24;6.70;85.60
26541;DHT22;14206;50.202;10.948;2023-02-01T14:56:09;6.70;85.30
26541;DHT22;14206;50.202;10.948;2023-02-01T14:58:50;6.70;85.80
26541;DHT22;14206;50.202;10.948;2023-02-01T15:01:30;6.70;85.60
26541;DHT22;14206;50.202;10.948;2023-02-01T15:04:14;6.60;86.00
26541;DHT22;14206;50.202;10.948;2023-02-01T15:12:17;6.50;85.70
26541;DHT22;14206;50.202;10.948;2023-02-01T15:15:01;6.50;85.60
26541;DHT22;14206;50.202;10.948;2023-02-01T15:17:31;6.50;85.70
26541;DHT22;14206;50.202;10.948;2023-02-01T15:20:04;6.50;85.70
26541;DHT22;14206;50.202;10.948;2023-02-01T15:22:38;6.50;85.80
26541;DHT22;14206;50.202;10.948;2023-02-01T15:25:17;6.50;85.50
26541;DHT22;14206;50.202;10.948;2023-02-01T15:27:44;6.50;85.30
26541;DHT22;14206;50.202;10.948;2023-02-01T15:30:23;6.50;85.70
26541;DHT22;14206;50.202;10.948;2023-02-01T15:32:51;6.50;85.70
26541;DHT22;14206;50.202;10.948;2023-02-01T15:35:42;6.50;85.60
26541;DHT22;14206;50.202;10.948;2023-02-01T15:43:30;6.50;85.80
26541;DHT22;14206;50.202;10.948;2023-02-01T15:46:01;6.50;85.60
26541;DHT22;14206;50.202;10.948;2023-02-01T15:48:37;6.50;85.70
26541;DHT22;14206;50.202;10.948;2023-02-01T15:51:05;6.50;85.80
26541;DHT22;14206;50.202;10.948;2023-02-01T15:53:32;6.50;85.90
26541;DHT22;14206;50.202;10.948;2023-02-01T15:56:02;6.50;85.70
26541;DHT22;14206;50.202;10.948;2023-02-01T15:58:46;6.50;85.90
26541;DHT22;14206;50.202;10.948;2023-02-01T16:01:14;6.50;85.80
26541;DHT22;14206;50.202;10.948;2023-02-01T16:03:45;6.50;85.80
26541;DHT22;14206;50.202;10.948;2023-02-01T16:08:53;6.50;85.70
26541;DHT22;14206;50.202;10.948;2023-02-01T16:11:28;6.50;85.60
26541;DHT22;14206;50.202;10.948;2023-02-01T16:13:58;6.50;85.30
26541;DHT22;14206;50.202;10.948;2023-02-01T16:16:27;6.50;85.60
26541;DHT22;14206;50.202;10.948;2023-02-01T16:18:54;6.50;85.60
26541;DHT22;14206;50.202;10.948;2023-02-01T16:21:22;6.50;85.50
26541;DHT22;14206;50.202;10.948;2023-02-01T16:23:52;6.50;85.50
26541;DHT22;14206;50.202;10.948;2023-02-01T16:26:20;6.50;85.60
26541;DHT22;14206;50.202;10.948;2023-02-01T16:28:47;6.50;85.70
26541;DHT22;14206;50.202;10.948;2023-02-01T16:31:17;6.50;85.90
26541;DHT22;14206;50.202;10.948;2023-02-01T16:33:51;6.50;85.80
26541;DHT22;14206;50.202;10.948;2023-02-01T16:36:18;6.40;85.70
26541;DHT22;14206;50.202;10.948;2023-02-01T16:38:45;6.40;86.20
26541;DHT22;14206;50.202;10.948;2023-02-01T16:41:16;6.40;86.30
26541;DHT22;14206;50.202;10.948;2023-02-01T16:43:43;6.40;85.90
26541;DHT22;14206;50.202;10.948;2023-02-01T16:46:20;6.40;85.90
26541;DHT22;14206;50.202;10.948;2023-02-01T16:48:52;6.40;85.90
26541;DHT22;14206;50.202;10.948;2023-02-01T16:51:20;6.30;86.30
26541;DHT22;14206;50.202;10.948;2023-02-01T16:53:47;6.30;86.60
26541;DHT22;14206;50.202;10.948;2023-02-01T16:56:23;6.30;86.70
26541;DHT22;14206;50.202;10.948;2023-02-01T16:58:51;6.30;86.70
26541;DHT22;14206;50.202;10.948;2023-02-01T17:01:19;6.40;86.50
26541;DHT22;14206;50.202;10.948;2023-02-01T17:03:47;6.40;86.50
26541;DHT22;14206;50.202;10.948;2023-02-01T17:06:16;6.40;86.60
26541;DHT22;14206;50.202;10.948;2023-02-01T17:08:53;6.40;86.60
26541;DHT22;14206;50.202;10.948;2023-02-01T17:11:21;6.40;86.80
26541;DHT22;14206;50.202;10.948;2023-02-01T17:13:52;6.40;87.30
26541;DHT22;14206;50.202;10.948;2023-02-01T17:16:27;6.40;87.60
26541;DHT22;14206;50.202;10.948;2023-02-01T17:18:59;6.40;88.20
26541;DHT22;14206;50.202;10.948;2023-02-01T17:21:29;6.30;88.50
26541;DHT22;14206;50.202;10.948;2023-02-01T17:23:56;6.30;89.10
26541;DHT22;14206;50.202;10.948;2023-02-01T17:26:25;6.30;88.90
26541;DHT22;14206;50.202;10.948;2023-02-01T17:28:52;6.30;89.50
26541;DHT22;14206;50.202;10.948;2023-02-01T17:31:20;6.20;89.90
26541;DHT22;14206;50.202;10.948;2023-02-01T17:33:47;6.20;90.10
26541;DHT22;14206;50.202;10.948;2023-02-01T17:36:17;6.10;90.40
26541;DHT22;14206;50.202;10.948;2023-02-01T17:38:44;6.20;90.40
26541;DHT22;14206;50.202;10.948;2023-02-01T17:41:19;6.20;90.50
26541;DHT22;14206;50.202;10.948;2023-02-01T17:43:46;6.20;90.30
26541;DHT22;14206;50.202;10.948;2023-02-01T17:46:15;6.20;90.10
26541;DHT22;14206;50.202;10.948;2023-02-01T17:48:44;6.20;90.20
26541;DHT22;14206;50.202;10.948;2023-02-01T17:51:20;6.30;90.10
26541;DHT22;14206;50.202;10.948;2023-02-01T17:53:48;6.30;90.10
26541;DHT22;14206;50.202;10.948;2023-02-01T17:56:23;6.30;90.20
26541;DHT22;14206;50.202;10.948;2023-02-01T17:58:50;6.30;90.20
26541;DHT22;14206;50.202;10.948;2023-02-01T18:01:21;6.40;89.80
26541;DHT22;14206;50.202;10.948;2023-02-01T18:03:49;6.30;89.80
26541;DHT22;14206;50.202;10.948;2023-02-01T18:06:22;6.40;89.80
26541;DHT22;14206;50.202;10.948;2023-02-01T18:08:49;6.40;89.70
26541;DHT22;14206;50.202;10.948;2023-02-01T18:11:21;6.40;89.90
26541;DHT22;14206;50.202;10.948;2023-02-01T18:13:50;6.40;89.70
26541;DHT22;14206;50.202;10.948;2023-02-01T18:16:30;6.40;89.90
26541;DHT22;14206;50.202;10.948;2023-02-01T18:18:57;6.50;89.40
26541;DHT22;14206;50.202;10.948;2023-02-01T18:21:40;6.40;89.60
26541;DHT22;14206;50.202;10.948;2023-02-01T18:24:15;6.40;90.10
26541;DHT22;14206;50.202;10.948;2023-02-01T18:26:43;6.40;90.70
26541;DHT22;14206;50.202;10.948;2023-02-01T18:29:10;6.30;91.00
26541;DHT22;14206;50.202;10.948;2023-02-01T18:31:43;6.30;90.90
26541;DHT22;14206;50.202;10.948;2023-02-01T18:34:11;6.30;90.90